• Join FlightAware (Why Join?)
  • Login
  • US Flag 
10:39AM EDT


 

Airport Tracker/Info


-or-


 

Live Flight TrackerFlight Track Log ✈ BOE5 ✈ 17-Apr-2013 ✈ KSBD

Flight Track Log - Related Links

Times and Time Zones

All times are in EDT time to prevent confusion due to time zone crossing. See the BOE5 flight status page for this flight to view local times or setup timezone preferences in your user account.

Time Position Orientation Groundspeed Altitude Reporting Facility
EDT Latitude Longitude Course Direction KTS MPH feet Rate Location/Type
06:59PM 30.8644 -121.5839 48° Northeast 525 604 30,000  Level Los Angeles Center
07:00PM 31.0067 -121.5433 14° North 525 604 30,000  Level Los Angeles Center
07:01PM 31.1486 -121.5033 14° North 525 604 30,000 -180 Level Los Angeles Center
07:02PM 31.2647 -121.3897 40° Northeast 543 625 29,700 -540 Descending Los Angeles Center
07:03PM 31.3839 -121.2264 49° Northeast 554 638 28,900 -360 Descending Los Angeles Center
07:05PM 31.0223 -121.3922 48° Northeast  Level Estimated
07:05PM 31.4853 -121.0975 47° Northeast 549 632 29,000  Level Los Angeles Center
07:06PM 31.5847 -120.9586 50° Northeast 552 635 28,900 -60 Descending Los Angeles Center
07:07PM 31.6842 -120.8217 50° Northeast 554 638 28,900  Level Los Angeles Center
07:08PM 31.7828 -120.6853 50° Northeast 550 633 28,900  Level Los Angeles Center
07:09PM 31.8808 -120.5506 49° Northeast 546 628 28,900  Level Los Angeles Center
07:10PM 31.9989 -120.3869 50° Northeast 546 628 29,000  Climbing Los Angeles Center
07:11PM 32.0972 -120.2494 50° Northeast 549 632 29,000 -60 Level Los Angeles Center
07:12PM 32.1939 -120.1133 50° Northeast 545 627 28,900  Descending Los Angeles Center
07:13PM 32.3036 -119.9575 50° Northeast 545 627 29,000  Climbing Los Angeles Center
07:14PM 32.4006 -119.8197 50° Northeast 546 628 29,000  Level Los Angeles Center
07:15PM 32.4983 -119.6836 50° Northeast 545 627 29,000  Level Los Angeles Center
07:16PM 32.5944 -119.5453 50° Northeast 544 626 29,000  Level Los Angeles Center
07:17PM 32.6919 -119.4064 50° Northeast 547 629 29,000  Level Los Angeles Center
07:18PM 32.7892 -119.2681 50° Northeast 548 631 29,000  Level Los Angeles Center
07:19PM 32.9050 -119.1014 50° Northeast 547 629 29,000  Level Los Angeles Center
07:20PM 33.0036 -118.9614 50° Northeast 550 633 29,000  Level Los Angeles Center
07:21PM 33.0989 -118.8225 51° Northeast 546 628 29,000  Level Los Angeles Center
07:22PM 33.1950 -118.6814 51° Northeast 550 633 29,000  Level Los Angeles Center
07:23PM 33.2911 -118.5414 51° Northeast 549 632 29,000  Level Los Angeles Center
07:24PM 33.3608 -118.3819 62° Northeast 558 642 29,000 -540 Level Los Angeles Center
07:25PM 33.3394 -118.1553 96° East 579 666 28,000 -1,560 Descending Los Angeles Center
07:26PM 33.3244 -117.9725 96° East 564 649 25,800 -1,980 Descending Los Angeles Center
07:27PM 33.3231 -117.7958 90° East 544 626 24,000 -1,800 Descending Los Angeles Center
07:28PM 33.3203 -117.6339 91° East 508 585 22,200 -3,360 Descending Los Angeles Center
07:29PM 33.3164 -117.4814 92° East 473 544 17,100 -2,940 Descending Los Angeles Center
07:30PM 33.3411 -117.3342 79° East 399 459 16,200 -540 Descending Los Angeles Center
07:31PM 33.3697 -117.2342 71° East 345 397 16,000 -420 Descending Los Angeles Center
07:32PM 33.4000 -117.1833 54° Northeast 290 334 15,500 -1,200 Descending Southern California TRACON
07:32PM 33.4261 -117.1558 41° Northeast 313 360 14,800 -1,860 Descending Los Angeles Center
07:33PM 33.4942 -117.1478 North 253 291 13,000 -1,380 Descending Los Angeles Center
07:34PM 33.5611 -117.1236 17° North 249 287 12,000 -540 Descending Los Angeles Center
07:36PM 33.6206 -117.1128 North 238 274 12,000 -300 Level Los Angeles Center
07:37PM 33.6911 -117.1289 349° North 219 252 11,400 -1,680 Descending Los Angeles Center
07:38PM 33.7500 -117.1575 338° Northwest 227 261 8,600 -2,520 Descending Los Angeles Center
07:39PM 33.8133 -117.1858 340° North 238 274 6,300 -1,860 Descending Los Angeles Center
07:40PM 33.8681 -117.2086 341° North 223 257 4,800 -1,620 Descending Los Angeles Center
07:40PM 33.9000 -117.2167 348° North 209 241 4,100 -600 Descending Southern California TRACON
07:41PM 33.9500 -117.2500 331° Northwest 209 241 4,000 -60 Descending Southern California TRACON
07:42PM 34.0000 -117.2833 331° Northwest 191 220 4,000 -300 Level Southern California TRACON
07:43PM 34.0333 -117.3167 320° Northwest 155 178 3,500 -900 Descending Southern California TRACON
07:44PM 34.0667 -117.3167 360° North 135 155 2,300 -1,080 Descending Southern California TRACON
07:45PM 34.0833 -117.2667 68° East 154 177 1,400 -900 Descending Southern California TRACON